aviador You're here:

OING Decoded Metar

GORGAN in IRAN
Report Time2018-07-22 07:00:00
UTC Time2018-07-22 07:13:54
Flight Rules vfr VFR
Wind220° at 10 kt
W.Decomp.*RWY 13: 0.5 kt HW 10.0 kt RCW
W.Rank220° ranks 8
Current wind is above 220° avg. (7.5)
Visibility9999 m
Phenomena:N/A
Clouds:Scattered 020 Hf
Few CB 025 Hf
Broken 080 Hf
Expected CloudBase > 1,600 ft AGL from Temp-Dew spread
Ceiling8,000 ft
Temp30°C (ISA +16)
Dew Point26°C (79% RH)
Heat Index37.4°C
QNH1007 hPa
Density Alt2,989 ft
Elevation509 ft
Report Wrong Elevation
Raw Report
METAR OING 220700Z 22010KT 9999 SCT020 FEW025CB BKN080 30/26 Q1007=

Extra information for OING:More info

Metar Taf Metar & Taf Last 4 Metars F.Rules Stats Wind Profile Meteogram Temp Stats Airport Information Weather charts Add Link Nearby VenuesMetar ALERT Operation Metar Decoded Social comments